sensor_id;sensor_type;location;lat;lon;timestamp;pressure;altitude;pressure_sealevel;temperature;humidity
81125;BME280;72192;52.114;5.424;2024-01-07T00:01:58;102000.00;;;0.55;100.00
81125;BME280;72192;52.114;5.424;2024-01-07T00:04:40;102001.72;;;0.56;100.00
81125;BME280;72192;52.114;5.424;2024-01-07T00:07:19;102002.66;;;0.55;100.00
81125;BME280;72192;52.114;5.424;2024-01-07T00:09:59;102003.44;;;0.57;100.00
81125;BME280;72192;52.114;5.424;2024-01-07T00:12:40;102007.81;;;0.58;100.00
81125;BME280;72192;52.114;5.424;2024-01-07T00:15:19;102012.34;;;0.56;100.00
81125;BME280;72192;52.114;5.424;2024-01-07T00:17:59;102012.22;;;0.59;100.00
81125;BME280;72192;52.114;5.424;2024-01-07T00:20:39;102010.53;;;0.56;100.00
81125;BME280;72192;52.114;5.424;2024-01-07T00:23:19;102018.44;;;0.58;100.00
81125;BME280;72192;52.114;5.424;2024-01-07T00:25:59;102022.19;;;0.54;100.00
81125;BME280;72192;52.114;5.424;2024-01-07T00:28:41;102033.75;;;0.53;100.00
81125;BME280;72192;52.114;5.424;2024-01-07T00:31:23;102028.50;;;0.51;100.00
81125;BME280;72192;52.114;5.424;2024-01-07T00:34:02;102030.31;;;0.51;100.00
81125;BME280;72192;52.114;5.424;2024-01-07T00:36:43;102026.78;;;0.50;100.00
81125;BME280;72192;52.114;5.424;2024-01-07T00:39:22;102035.53;;;0.52;100.00
81125;BME280;72192;52.114;5.424;2024-01-07T00:42:06;102032.09;;;0.50;100.00
81125;BME280;72192;52.114;5.424;2024-01-07T00:44:45;102034.94;;;0.46;100.00
81125;BME280;72192;52.114;5.424;2024-01-07T00:47:26;102041.97;;;0.47;100.00
81125;BME280;72192;52.114;5.424;2024-01-07T00:50:06;102043.69;;;0.48;100.00
81125;BME280;72192;52.114;5.424;2024-01-07T00:52:45;102038.38;;;0.48;100.00
81125;BME280;72192;52.114;5.424;2024-01-07T00:55:25;102047.22;;;0.48;100.00
81125;BME280;72192;52.114;5.424;2024-01-07T00:58:05;102046.25;;;0.51;100.00
81125;BME280;72192;52.114;5.424;2024-01-07T01:00:45;102055.84;;;0.53;100.00
81125;BME280;72192;52.114;5.424;2024-01-07T01:03:27;102046.16;;;0.52;100.00
81125;BME280;72192;52.114;5.424;2024-01-07T01:06:06;102049.59;;;0.54;100.00
81125;BME280;72192;52.114;5.424;2024-01-07T01:08:46;102047.09;;;0.51;100.00
81125;BME280;72192;52.114;5.424;2024-01-07T01:11:26;102060.47;;;0.50;100.00
81125;BME280;72192;52.114;5.424;2024-01-07T01:14:07;102058.66;;;0.50;100.00
81125;BME280;72192;52.114;5.424;2024-01-07T01:16:46;102061.25;;;0.52;100.00
81125;BME280;72192;52.114;5.424;2024-01-07T01:19:26;102060.09;;;0.57;100.00
81125;BME280;72192;52.114;5.424;2024-01-07T01:22:07;102064.53;;;0.57;100.00
81125;BME280;72192;52.114;5.424;2024-01-07T01:24:46;102068.22;;;0.54;100.00
81125;BME280;72192;52.114;5.424;2024-01-07T01:27:27;102069.06;;;0.55;100.00
81125;BME280;72192;52.114;5.424;2024-01-07T01:30:07;102074.31;;;0.56;100.00
81125;BME280;72192;52.114;5.424;2024-01-07T01:32:47;102076.88;;;0.58;100.00
81125;BME280;72192;52.114;5.424;2024-01-07T01:35:27;102074.38;;;0.55;100.00
81125;BME280;72192;52.114;5.424;2024-01-07T01:38:07;102076.25;;;0.53;100.00
81125;BME280;72192;52.114;5.424;2024-01-07T01:40:52;102081.63;;;0.51;100.00
81125;BME280;72192;52.114;5.424;2024-01-07T01:43:32;102086.88;;;0.53;100.00
81125;BME280;72192;52.114;5.424;2024-01-07T01:46:13;102090.38;;;0.53;100.00
81125;BME280;72192;52.114;5.424;2024-01-07T01:48:54;102094.78;;;0.54;100.00
81125;BME280;72192;52.114;5.424;2024-01-07T01:51:35;102097.34;;;0.56;100.00
81125;BME280;72192;52.114;5.424;2024-01-07T01:54:15;102099.00;;;0.58;100.00
81125;BME280;72192;52.114;5.424;2024-01-07T01:56:58;102104.38;;;0.57;100.00
81125;BME280;72192;52.114;5.424;2024-01-07T01:59:38;102108.75;;;0.58;100.00
81125;BME280;72192;52.114;5.424;2024-01-07T02:02:18;102117.56;;;0.60;100.00
81125;BME280;72192;52.114;5.424;2024-01-07T02:04:59;102111.38;;;0.60;100.00
81125;BME280;72192;52.114;5.424;2024-01-07T02:07:43;102114.81;;;0.62;100.00
81125;BME280;72192;52.114;5.424;2024-01-07T02:10:22;102118.41;;;0.61;100.00
81125;BME280;72192;52.114;5.424;2024-01-07T02:13:03;102118.53;;;0.57;100.00
81125;BME280;72192;52.114;5.424;2024-01-07T02:15:43;102120.41;;;0.55;100.00
81125;BME280;72192;52.114;5.424;2024-01-07T02:18:23;102131.88;;;0.56;100.00
81125;BME280;72192;52.114;5.424;2024-01-07T02:21:03;102124.00;;;0.54;100.00
81125;BME280;72192;52.114;5.424;2024-01-07T02:23:43;102131.16;;;0.52;100.00
81125;BME280;72192;52.114;5.424;2024-01-07T02:26:24;102130.38;;;0.50;100.00
81125;BME280;72192;52.114;5.424;2024-01-07T02:29:04;102136.50;;;0.52;100.00
81125;BME280;72192;52.114;5.424;2024-01-07T02:31:43;102135.69;;;0.50;100.00
81125;BME280;72192;52.114;5.424;2024-01-07T02:34:25;102137.53;;;0.48;100.00
81125;BME280;72192;52.114;5.424;2024-01-07T02:37:05;102140.16;;;0.50;100.00
81125;BME280;72192;52.114;5.424;2024-01-07T02:39:45;102136.56;;;0.51;100.00
81125;BME280;72192;52.114;5.424;2024-01-07T02:42:25;102141.81;;;0.52;100.00
81125;BME280;72192;52.114;5.424;2024-01-07T02:45:05;102146.09;;;0.55;100.00
81125;BME280;72192;52.114;5.424;2024-01-07T02:47:45;102142.53;;;0.56;100.00
81125;BME280;72192;52.114;5.424;2024-01-07T02:50:25;102145.00;;;0.61;100.00
81125;BME280;72192;52.114;5.424;2024-01-07T02:53:06;102144.91;;;0.62;100.00
81125;BME280;72192;52.114;5.424;2024-01-07T02:55:47;102146.72;;;0.62;100.00
81125;BME280;72192;52.114;5.424;2024-01-07T02:58:27;102153.75;;;0.63;100.00
81125;BME280;72192;52.114;5.424;2024-01-07T03:01:11;102143.97;;;0.63;100.00
81125;BME280;72192;52.114;5.424;2024-01-07T03:03:52;102149.38;;;0.62;100.00
81125;BME280;72192;52.114;5.424;2024-01-07T03:06:34;102154.78;;;0.58;100.00
81125;BME280;72192;52.114;5.424;2024-01-07T03:09:13;102159.31;;;0.56;100.00
81125;BME280;72192;52.114;5.424;2024-01-07T03:11:56;102153.94;;;0.58;100.00
81125;BME280;72192;52.114;5.424;2024-01-07T03:14:36;102163.66;;;0.59;100.00
81125;BME280;72192;52.114;5.424;2024-01-07T03:17:16;102167.22;;;0.58;100.00
81125;BME280;72192;52.114;5.424;2024-01-07T03:19:56;102160.25;;;0.55;100.00
81125;BME280;72192;52.114;5.424;2024-01-07T03:22:36;102168.22;;;0.55;100.00
81125;BME280;72192;52.114;5.424;2024-01-07T03:25:15;102172.75;;;0.53;100.00
81125;BME280;72192;52.114;5.424;2024-01-07T03:27:56;102178.06;;;0.53;100.00
81125;BME280;72192;52.114;5.424;2024-01-07T03:30:37;102175.25;;;0.56;100.00
81125;BME280;72192;52.114;5.424;2024-01-07T03:33:16;102178.78;;;0.57;100.00
81125;BME280;72192;52.114;5.424;2024-01-07T03:35:56;102184.16;;;0.55;100.00
81125;BME280;72192;52.114;5.424;2024-01-07T03:38:37;102179.53;;;0.61;100.00
81125;BME280;72192;52.114;5.424;2024-01-07T03:41:18;102179.38;;;0.64;100.00
81125;BME280;72192;52.114;5.424;2024-01-07T03:43:59;102184.69;;;0.64;100.00
81125;BME280;72192;52.114;5.424;2024-01-07T03:46:39;102184.91;;;0.59;100.00
81125;BME280;72192;52.114;5.424;2024-01-07T03:49:22;102186.75;;;0.57;100.00
81125;BME280;72192;52.114;5.424;2024-01-07T03:52:03;102198.31;;;0.56;100.00
81125;BME280;72192;52.114;5.424;2024-01-07T03:54:45;102190.47;;;0.53;100.00
81125;BME280;72192;52.114;5.424;2024-01-07T03:57:24;102199.38;;;0.52;100.00
81125;BME280;72192;52.114;5.424;2024-01-07T04:00:05;102203.16;;;0.46;100.00
81125;BME280;72192;52.114;5.424;2024-01-07T04:02:46;102195.25;;;0.45;100.00
81125;BME280;72192;52.114;5.424;2024-01-07T04:05:26;102213.84;;;0.45;100.00
81125;BME280;72192;52.114;5.424;2024-01-07T04:08:09;102207.53;;;0.47;100.00
81125;BME280;72192;52.114;5.424;2024-01-07T04:10:50;102212.84;;;0.47;100.00
81125;BME280;72192;52.114;5.424;2024-01-07T04:13:29;102211.13;;;0.46;100.00
81125;BME280;72192;52.114;5.424;2024-01-07T04:16:17;102216.34;;;0.48;100.00
81125;BME280;72192;52.114;5.424;2024-01-07T04:18:58;102224.28;;;0.49;100.00
81125;BME280;72192;52.114;5.424;2024-01-07T04:21:37;102229.63;;;0.48;100.00
81125;BME280;72192;52.114;5.424;2024-01-07T04:24:17;102230.41;;;0.51;100.00
81125;BME280;72192;52.114;5.424;2024-01-07T04:26:58;102239.16;;;0.53;100.00
81125;BME280;72192;52.114;5.424;2024-01-07T04:29:38;102234.84;;;0.51;100.00
81125;BME280;72192;52.114;5.424;2024-01-07T04:32:19;102231.25;;;0.52;100.00
81125;BME280;72192;52.114;5.424;2024-01-07T04:34:58;102229.59;;;0.49;100.00
81125;BME280;72192;52.114;5.424;2024-01-07T04:37:40;102245.56;;;0.48;100.00
81125;BME280;72192;52.114;5.424;2024-01-07T04:40:22;102243.69;;;0.51;100.00
81125;BME280;72192;52.114;5.424;2024-01-07T04:43:03;102251.66;;;0.51;100.00
81125;BME280;72192;52.114;5.424;2024-01-07T04:45:43;102256.16;;;0.49;100.00
81125;BME280;72192;52.114;5.424;2024-01-07T04:48:23;102256.97;;;0.51;100.00
81125;BME280;72192;52.114;5.424;2024-01-07T04:51:02;102261.53;;;0.48;100.00
81125;BME280;72192;52.114;5.424;2024-01-07T04:53:42;102262.53;;;0.45;100.00
81125;BME280;72192;52.114;5.424;2024-01-07T04:56:22;102264.31;;;0.45;100.00
81125;BME280;72192;52.114;5.424;2024-01-07T04:59:03;102266.03;;;0.46;100.00
81125;BME280;72192;52.114;5.424;2024-01-07T05:01:43;102264.25;;;0.46;100.00
81125;BME280;72192;52.114;5.424;2024-01-07T05:04:23;102273.94;;;0.47;100.00
81125;BME280;72192;52.114;5.424;2024-01-07T05:07:04;102282.91;;;0.45;100.00
81125;BME280;72192;52.114;5.424;2024-01-07T05:09:44;102279.31;;;0.46;100.00
81125;BME280;72192;52.114;5.424;2024-01-07T05:12:23;102292.53;;;0.47;100.00
81125;BME280;72192;52.114;5.424;2024-01-07T05:15:04;102288.09;;;0.48;100.00
81125;BME280;72192;52.114;5.424;2024-01-07T05:17:46;102299.53;;;0.50;100.00
81125;BME280;72192;52.114;5.424;2024-01-07T05:20:27;102300.44;;;0.49;100.00
81125;BME280;72192;52.114;5.424;2024-01-07T05:23:07;102294.22;;;0.50;100.00
81125;BME280;72192;52.114;5.424;2024-01-07T05:25:47;102311.88;;;0.51;100.00
81125;BME280;72192;52.114;5.424;2024-01-07T05:28:26;102309.31;;;0.49;100.00
81125;BME280;72192;52.114;5.424;2024-01-07T05:31:17;102301.38;;;0.48;100.00
81125;BME280;72192;52.114;5.424;2024-01-07T05:34:01;102314.66;;;0.48;100.00
81125;BME280;72192;52.114;5.424;2024-01-07T05:36:40;102309.34;;;0.48;100.00
81125;BME280;72192;52.114;5.424;2024-01-07T05:39:22;102317.38;;;0.46;100.00
81125;BME280;72192;52.114;5.424;2024-01-07T05:42:00;102317.44;;;0.45;100.00
81125;BME280;72192;52.114;5.424;2024-01-07T05:44:41;102316.63;;;0.43;100.00
81125;BME280;72192;52.114;5.424;2024-01-07T05:47:21;102323.69;;;0.44;100.00
81125;BME280;72192;52.114;5.424;2024-01-07T05:50:01;102336.03;;;0.45;100.00
81125;BME280;72192;52.114;5.424;2024-01-07T05:52:41;102330.84;;;0.42;100.00
81125;BME280;72192;52.114;5.424;2024-01-07T05:55:23;102333.50;;;0.42;100.00
81125;BME280;72192;52.114;5.424;2024-01-07T05:58:02;102338.81;;;0.42;100.00
81125;BME280;72192;52.114;5.424;2024-01-07T06:00:42;102344.78;;;0.47;100.00
81125;BME280;72192;52.114;5.424;2024-01-07T06:03:22;102344.88;;;0.45;100.00
81125;BME280;72192;52.114;5.424;2024-01-07T06:06:02;102350.25;;;0.44;100.00
81125;BME280;72192;52.114;5.424;2024-01-07T06:08:43;102355.56;;;0.44;100.00
81125;BME280;72192;52.114;5.424;2024-01-07T06:11:24;102363.53;;;0.44;100.00
81125;BME280;72192;52.114;5.424;2024-01-07T06:14:06;102361.78;;;0.43;100.00
81125;BME280;72192;52.114;5.424;2024-01-07T06:16:48;102370.75;;;0.40;100.00
81125;BME280;72192;52.114;5.424;2024-01-07T06:19:27;102371.66;;;0.39;100.00
81125;BME280;72192;52.114;5.424;2024-01-07T06:22:08;102369.91;;;0.40;100.00
81125;BME280;72192;52.114;5.424;2024-01-07T06:24:48;102375.22;;;0.40;100.00
81125;BME280;72192;52.114;5.424;2024-01-07T06:27:28;102381.31;;;0.42;100.00
81125;BME280;72192;52.114;5.424;2024-01-07T06:30:09;102382.25;;;0.41;100.00
81125;BME280;72192;52.114;5.424;2024-01-07T06:32:50;102384.94;;;0.39;100.00
81125;BME280;72192;52.114;5.424;2024-01-07T06:35:30;102389.38;;;0.39;100.00
81125;BME280;72192;52.114;5.424;2024-01-07T06:38:09;102395.56;;;0.39;100.00
81125;BME280;72192;52.114;5.424;2024-01-07T06:40:49;102398.41;;;0.35;100.00
81125;BME280;72192;52.114;5.424;2024-01-07T06:43:29;102401.06;;;0.35;100.00
81125;BME280;72192;52.114;5.424;2024-01-07T06:46:10;102408.91;;;0.38;100.00
81125;BME280;72192;52.114;5.424;2024-01-07T06:48:50;102408.03;;;0.37;100.00
81125;BME280;72192;52.114;5.424;2024-01-07T06:51:30;102410.81;;;0.34;100.00
81125;BME280;72192;52.114;5.424;2024-01-07T06:54:09;102412.50;;;0.37;100.00
81125;BME280;72192;52.114;5.424;2024-01-07T06:56:50;102416.94;;;0.36;100.00
81125;BME280;72192;52.114;5.424;2024-01-07T06:59:29;102424.03;;;0.36;100.00
81125;BME280;72192;52.114;5.424;2024-01-07T07:02:10;102433.75;;;0.37;100.00
81125;BME280;72192;52.114;5.424;2024-01-07T07:04:51;102432.00;;;0.36;100.00
81125;BME280;72192;52.114;5.424;2024-01-07T07:07:30;102447.22;;;0.32;100.00
81125;BME280;72192;52.114;5.424;2024-01-07T07:10:11;102442.91;;;0.28;100.00
81125;BME280;72192;52.114;5.424;2024-01-07T07:12:51;102445.56;;;0.28;100.00
81125;BME280;72192;52.114;5.424;2024-01-07T07:15:31;102449.06;;;0.30;100.00
81125;BME280;72192;52.114;5.424;2024-01-07T07:18:11;102451.72;;;0.30;100.00
81125;BME280;72192;52.114;5.424;2024-01-07T07:20:51;102464.13;;;0.30;100.00
81125;BME280;72192;52.114;5.424;2024-01-07T07:23:38;102460.56;;;0.31;100.00
81125;BME280;72192;52.114;5.424;2024-01-07T07:26:17;102457.94;;;0.29;100.00
81125;BME280;72192;52.114;5.424;2024-01-07T07:28:57;102474.84;;;0.26;100.00
81125;BME280;72192;52.114;5.424;2024-01-07T07:31:38;102471.19;;;0.29;100.00
81125;BME280;72192;52.114;5.424;2024-01-07T07:34:18;102473.81;;;0.31;100.00
81125;BME280;72192;52.114;5.424;2024-01-07T07:37:00;102483.53;;;0.32;100.00
81125;BME280;72192;52.114;5.424;2024-01-07T07:39:39;102479.88;;;0.34;100.00
81125;BME280;72192;52.114;5.424;2024-01-07T07:42:20;102479.09;;;0.32;100.00
81125;BME280;72192;52.114;5.424;2024-01-07T07:44:59;102480.00;;;0.31;100.00
81125;BME280;72192;52.114;5.424;2024-01-07T07:47:40;102488.03;;;0.30;100.00
81125;BME280;72192;52.114;5.424;2024-01-07T07:50:24;102504.06;;;0.26;100.00
81125;BME280;72192;52.114;5.424;2024-01-07T07:53:04;102509.44;;;0.25;100.00
81125;BME280;72192;52.114;5.424;2024-01-07T07:55:45;102505.84;;;0.26;100.00
81125;BME280;72192;52.114;5.424;2024-01-07T07:58:24;102522.66;;;0.26;100.00
81125;BME280;72192;52.114;5.424;2024-01-07T08:01:04;102521.84;;;0.24;100.00
81125;BME280;72192;52.114;5.424;2024-01-07T08:03:45;102520.00;;;0.26;100.00
81125;BME280;72192;52.114;5.424;2024-01-07T08:06:29;102534.19;;;0.25;100.00
81125;BME280;72192;52.114;5.424;2024-01-07T08:09:08;102540.44;;;0.24;100.00
81125;BME280;72192;52.114;5.424;2024-01-07T08:11:51;102550.19;;;0.24;100.00
81125;BME280;72192;52.114;5.424;2024-01-07T08:14:32;102551.97;;;0.23;100.00
81125;BME280;72192;52.114;5.424;2024-01-07T08:17:12;102555.50;;;0.24;100.00
81125;BME280;72192;52.114;5.424;2024-01-07T08:19:51;102548.59;;;0.20;100.00
81125;BME280;72192;52.114;5.424;2024-01-07T08:22:32;102557.41;;;0.20;100.00
81125;BME280;72192;52.114;5.424;2024-01-07T08:25:12;102551.25;;;0.18;100.00
81125;BME280;72192;52.114;5.424;2024-01-07T08:27:52;102551.50;;;0.12;100.00
81125;BME280;72192;52.114;5.424;2024-01-07T08:30:31;102562.88;;;0.16;100.00
81125;BME280;72192;52.114;5.424;2024-01-07T08:33:12;102561.94;;;0.17;100.00
81125;BME280;72192;52.114;5.424;2024-01-07T08:35:51;102563.63;;;0.19;100.00
81125;BME280;72192;52.114;5.424;2024-01-07T08:38:31;102573.16;;;0.25;100.00
81125;BME280;72192;52.114;5.424;2024-01-07T08:41:15;102568.06;;;0.19;100.00
81125;BME280;72192;52.114;5.424;2024-01-07T08:44:05;102571.69;;;0.16;100.00
81125;BME280;72192;52.114;5.424;2024-01-07T08:46:49;102581.34;;;0.19;100.00
81125;BME280;72192;52.114;5.424;2024-01-07T08:49:30;102582.13;;;0.22;100.00
81125;BME280;72192;52.114;5.424;2024-01-07T08:52:14;102591.81;;;0.23;100.00
81125;BME280;72192;52.114;5.424;2024-01-07T08:54:54;102588.97;;;0.28;100.00
81125;BME280;72192;52.114;5.424;2024-01-07T08:57:33;102597.81;;;0.28;100.00
81125;BME280;72192;52.114;5.424;2024-01-07T09:00:14;102597.00;;;0.26;100.00
81125;BME280;72192;52.114;5.424;2024-01-07T09:02:54;102610.34;;;0.25;100.00
81125;BME280;72192;52.114;5.424;2024-01-07T09:05:34;102608.75;;;0.19;100.00
81125;BME280;72192;52.114;5.424;2024-01-07T09:08:14;102617.31;;;0.27;100.00
81125;BME280;72192;52.114;5.424;2024-01-07T09:10:54;102611.88;;;0.32;100.00
81125;BME280;72192;52.114;5.424;2024-01-07T09:13:34;102623.38;;;0.33;100.00
81125;BME280;72192;52.114;5.424;2024-01-07T09:16:13;102624.13;;;0.36;100.00
81125;BME280;72192;52.114;5.424;2024-01-07T09:18:53;102634.75;;;0.36;100.00
81125;BME280;72192;52.114;5.424;2024-01-07T09:21:34;102632.09;;;0.36;100.00
81125;BME280;72192;52.114;5.424;2024-01-07T09:24:14;102639.91;;;0.41;100.00
81125;BME280;72192;52.114;5.424;2024-01-07T09:26:54;102646.78;;;0.46;100.00
81125;BME280;72192;52.114;5.424;2024-01-07T09:29:35;102652.75;;;0.53;100.00
81125;BME280;72192;52.114;5.424;2024-01-07T09:32:14;102657.13;;;0.54;100.00
81125;BME280;72192;52.114;5.424;2024-01-07T09:34:54;102659.00;;;0.52;100.00
81125;BME280;72192;52.114;5.424;2024-01-07T09:37:35;102659.19;;;0.46;99.99
81125;BME280;72192;52.114;5.424;2024-01-07T09:40:19;102669.94;;;0.43;99.69
81125;BME280;72192;52.114;5.424;2024-01-07T09:42:59;102672.41;;;0.47;99.78
81125;BME280;72192;52.114;5.424;2024-01-07T09:45:41;102673.34;;;0.46;99.04
81125;BME280;72192;52.114;5.424;2024-01-07T09:48:22;102682.28;;;0.44;98.92
81125;BME280;72192;52.114;5.424;2024-01-07T09:51:29;102686.00;;;0.38;98.40
81125;BME280;72192;52.114;5.424;2024-01-07T09:54:19;102686.00;;;0.38;98.40
81125;BME280;72192;52.114;5.424;2024-01-07T09:57:02;102691.25;;;0.41;98.63
81125;BME280;72192;52.114;5.424;2024-01-07T09:59:45;102698.16;;;0.45;98.21
81125;BME280;72192;52.114;5.424;2024-01-07T10:02:25;102697.16;;;0.49;98.20
81125;BME280;72192;52.114;5.424;2024-01-07T10:05:06;102701.50;;;0.52;97.54
81125;BME280;72192;52.114;5.424;2024-01-07T10:07:46;102692.84;;;0.45;95.86
81125;BME280;72192;52.114;5.424;2024-01-07T10:10:28;102689.53;;;0.39;96.33
81125;BME280;72192;52.114;5.424;2024-01-07T10:13:09;102704.34;;;0.46;96.62
81125;BME280;72192;52.114;5.424;2024-01-07T10:15:49;102691.00;;;0.47;96.92
81125;BME280;72192;52.114;5.424;2024-01-07T10:18:30;102706.63;;;0.56;96.65
81125;BME280;72192;52.114;5.424;2024-01-07T10:21:12;102704.75;;;0.60;96.03
81125;BME280;72192;52.114;5.424;2024-01-07T10:24:09;102703.84;;;0.61;95.56
81125;BME280;72192;52.114;5.424;2024-01-07T10:26:49;102711.88;;;0.60;95.36
81125;BME280;72192;52.114;5.424;2024-01-07T10:29:32;102719.00;;;0.57;95.19
81125;BME280;72192;52.114;5.424;2024-01-07T10:32:13;102726.38;;;0.49;94.07
81125;BME280;72192;52.114;5.424;2024-01-07T10:35:01;102731.53;;;0.54;94.60
81125;BME280;72192;52.114;5.424;2024-01-07T10:37:44;102735.81;;;0.58;93.41
81125;BME280;72192;52.114;5.424;2024-01-07T10:40:23;102737.72;;;0.54;93.64
81125;BME280;72192;52.114;5.424;2024-01-07T10:43:08;102747.41;;;0.55;93.43
81125;BME280;72192;52.114;5.424;2024-01-07T10:45:48;102747.31;;;0.58;93.20
81125;BME280;72192;52.114;5.424;2024-01-07T10:48:30;102749.75;;;0.65;93.70
81125;BME280;72192;52.114;5.424;2024-01-07T10:51:14;102743.63;;;0.88;92.82
81125;BME280;72192;52.114;5.424;2024-01-07T10:53:55;102736.38;;;0.93;91.80
81125;BME280;72192;52.114;5.424;2024-01-07T10:56:41;102743.75;;;0.84;88.94
81125;BME280;72192;52.114;5.424;2024-01-07T10:59:25;102744.94;;;0.76;89.77
81125;BME280;72192;52.114;5.424;2024-01-07T11:02:07;102741.16;;;0.83;91.24
81125;BME280;72192;52.114;5.424;2024-01-07T11:08:41;102737.84;;;1.01;89.32
81125;BME280;72192;52.114;5.424;2024-01-07T11:11:38;102753.22;;;1.18;89.96
81125;BME280;72192;52.114;5.424;2024-01-07T11:14:39;102747.63;;;1.24;88.48
81125;BME280;72192;52.114;5.424;2024-01-07T11:20:21;102745.56;;;1.32;88.51
81125;BME280;72192;52.114;5.424;2024-01-07T11:23:27;102754.94;;;1.42;87.73
81125;BME280;72192;52.114;5.424;2024-01-07T11:26:08;102751.47;;;1.40;88.02
81125;BME280;72192;52.114;5.424;2024-01-07T11:28:52;102751.81;;;1.55;86.26
81125;BME280;72192;52.114;5.424;2024-01-07T11:34:43;102754.22;;;2.08;85.12
81125;BME280;72192;52.114;5.424;2024-01-07T11:37:27;102747.16;;;2.07;83.28
81125;BME280;72192;52.114;5.424;2024-01-07T11:40:08;102754.25;;;2.28;83.40
81125;BME280;72192;52.114;5.424;2024-01-07T11:42:50;102763.28;;;2.24;81.52
81125;BME280;72192;52.114;5.424;2024-01-07T11:45:31;102756.91;;;2.06;82.19
81125;BME280;72192;52.114;5.424;2024-01-07T11:48:13;102753.94;;;1.92;82.83
81125;BME280;72192;52.114;5.424;2024-01-07T11:50:51;102745.22;;;1.65;81.99
81125;BME280;72192;52.114;5.424;2024-01-07T11:53:31;102746.69;;;1.50;82.51
81125;BME280;72192;52.114;5.424;2024-01-07T11:56:14;102747.31;;;1.33;82.85
81125;BME280;72192;52.114;5.424;2024-01-07T11:58:56;102748.16;;;1.34;83.20
81125;BME280;72192;52.114;5.424;2024-01-07T12:01:37;102748.22;;;1.32;82.43
81125;BME280;72192;52.114;5.424;2024-01-07T12:04:17;102746.44;;;1.33;82.75
81125;BME280;72192;52.114;5.424;2024-01-07T12:06:58;102745.00;;;1.48;83.45
81125;BME280;72192;52.114;5.424;2024-01-07T12:09:39;102748.06;;;1.60;83.21
81125;BME280;72192;52.114;5.424;2024-01-07T12:12:20;102752.78;;;1.76;83.38
81125;BME280;72192;52.114;5.424;2024-01-07T12:15:00;102745.31;;;1.85;82.61
81125;BME280;72192;52.114;5.424;2024-01-07T12:17:46;102743.22;;;1.93;83.19
81125;BME280;72192;52.114;5.424;2024-01-07T12:20:34;102747.38;;;2.00;82.36
81125;BME280;72192;52.114;5.424;2024-01-07T12:23:14;102757.09;;;2.01;81.66
81125;BME280;72192;52.114;5.424;2024-01-07T12:25:55;102765.03;;;2.03;81.30
81125;BME280;72192;52.114;5.424;2024-01-07T12:28:58;102755.94;;;2.09;80.92
81125;BME280;72192;52.114;5.424;2024-01-07T12:31:42;102761.69;;;1.98;80.90
81125;BME280;72192;52.114;5.424;2024-01-07T12:34:25;102755.97;;;1.85;80.43
81125;BME280;72192;52.114;5.424;2024-01-07T12:37:05;102766.69;;;1.60;80.98
81125;BME280;72192;52.114;5.424;2024-01-07T12:39:45;102770.91;;;1.42;81.05
81125;BME280;72192;52.114;5.424;2024-01-07T12:42:28;102770.31;;;1.34;81.79
81125;BME280;72192;52.114;5.424;2024-01-07T12:45:08;102785.09;;;1.66;80.96
81125;BME280;72192;52.114;5.424;2024-01-07T12:47:48;102777.84;;;1.47;79.31
81125;BME280;72192;52.114;5.424;2024-01-07T12:50:28;102787.78;;;1.18;80.47
81125;BME280;72192;52.114;5.424;2024-01-07T12:53:10;102789.69;;;0.88;80.68
81125;BME280;72192;52.114;5.424;2024-01-07T12:55:53;102791.00;;;0.76;80.40
81125;BME280;72192;52.114;5.424;2024-01-07T12:58:33;102792.81;;;1.01;80.76
81125;BME280;72192;52.114;5.424;2024-01-07T13:01:13;102790.75;;;1.57;81.92
81125;BME280;72192;52.114;5.424;2024-01-07T13:03:53;102792.56;;;1.80;77.46
81125;BME280;72192;52.114;5.424;2024-01-07T13:06:33;102799.50;;;1.61;76.86
81125;BME280;72192;52.114;5.424;2024-01-07T13:09:13;102803.03;;;1.85;76.65
81125;BME280;72192;52.114;5.424;2024-01-07T13:11:53;102796.84;;;2.06;75.79
81125;BME280;72192;52.114;5.424;2024-01-07T13:14:35;102793.91;;;2.14;75.75
81125;BME280;72192;52.114;5.424;2024-01-07T13:17:16;102791.72;;;2.45;75.19
81125;BME280;72192;52.114;5.424;2024-01-07T13:19:59;102794.75;;;3.00;76.48
81125;BME280;72192;52.114;5.424;2024-01-07T13:22:42;102788.28;;;3.84;71.17
81125;BME280;72192;52.114;5.424;2024-01-07T13:25:21;102793.78;;;4.55;73.65
81125;BME280;72192;52.114;5.424;2024-01-07T13:28:01;102786.31;;;5.13;67.80
81125;BME280;72192;52.114;5.424;2024-01-07T13:30:42;102787.56;;;5.24;64.81
81125;BME280;72192;52.114;5.424;2024-01-07T13:33:22;102802.13;;;4.66;65.00
81125;BME280;72192;52.114;5.424;2024-01-07T13:36:02;102809.91;;;3.59;67.04
81125;BME280;72192;52.114;5.424;2024-01-07T13:38:47;102817.75;;;3.03;68.91
81125;BME280;72192;52.114;5.424;2024-01-07T13:41:28;102813.50;;;2.56;70.96
81125;BME280;72192;52.114;5.424;2024-01-07T13:44:10;102824.47;;;2.27;72.09
81125;BME280;72192;52.114;5.424;2024-01-07T13:46:56;102825.94;;;2.12;73.04
81125;BME280;72192;52.114;5.424;2024-01-07T13:49:37;102833.34;;;2.04;74.19
81125;BME280;72192;52.114;5.424;2024-01-07T13:52:17;102825.56;;;3.28;72.89
81125;BME280;72192;52.114;5.424;2024-01-07T13:54:58;102835.13;;;4.29;70.49
81125;BME280;72192;52.114;5.424;2024-01-07T13:57:38;102833.28;;;4.67;67.94
81125;BME280;72192;52.114;5.424;2024-01-07T14:00:20;102827.47;;;5.28;64.46
81125;BME280;72192;52.114;5.424;2024-01-07T14:03:00;102826.13;;;5.37;63.50
81125;BME280;72192;52.114;5.424;2024-01-07T14:05:43;102829.75;;;5.01;62.26
81125;BME280;72192;52.114;5.424;2024-01-07T14:08:23;102834.34;;;4.82;64.49
81125;BME280;72192;52.114;5.424;2024-01-07T14:11:03;102843.91;;;4.69;63.43
81125;BME280;72192;52.114;5.424;2024-01-07T14:13:46;102842.72;;;4.00;64.05
81125;BME280;72192;52.114;5.424;2024-01-07T14:16:26;102850.69;;;3.63;66.53